| time (UTC) | temp F | wind direction | speed knots | gust knots | rain 1hr in | rain 24hr in | rain mn in | humidity % | barometer mb |
| 20260510164318 | 73 | 79 | 0.0 | 6.1 | 0.00 | 0.01 | 0.01 | 64 | 1010.9 |
| 20260510164053 | 74 | 189 | 0.9 | 3.5 | 0.00 | 0.05 | 0.00 | 57 | 1012.4 |
| 20260510163818 | 72 | 172 | 0.0 | 1.7 | 0.00 | 0.01 | 0.01 | 68 | 1010.9 |
| 20260510163553 | 74 | 284 | 0.9 | 4.3 | 0.00 | 0.05 | 0.00 | 57 | 1012.4 |
| 20260510163314 | 72 | 278 | 0.0 | 1.7 | 0.00 | 0.01 | 0.01 | 63 | 1011.0 |
| 20260510163051 | 74 | 287 | 0.9 | 4.3 | 0.00 | 0.05 | 0.00 | 57 | 1012.5 |
| 20260510162814 | 73 | 332 | 3.5 | 3.5 | 0.00 | 0.01 | 0.01 | 66 | 1010.9 |
| 20260510162548 | 74 | 11 | 0.0 | 3.5 | 0.00 | 0.05 | 0.00 | 59 | 1012.4 |
| 20260510162312 | 72 | 323 | 1.7 | 2.6 | 0.00 | 0.01 | 0.01 | 64 | 1010.8 |
| 20260510162048 | 73 | 263 | 0.0 | 0.0 | 0.00 | 0.05 | 0.00 | 61 | 1012.4 |
| 20260510161807 | 72 | 14 | 0.0 | 1.7 | 0.00 | 0.01 | 0.01 | 69 | 1011.0 |
| 20260510161549 | 73 | 272 | 0.0 | 0.0 | 0.00 | 0.05 | 0.00 | 59 | 1012.3 |
| 20260510161303 | 72 | 315 | 1.7 | 1.7 | 0.00 | 0.01 | 0.01 | 64 | 1010.8 |
| 20260510161100 | 74 | 40 | 0.9 | 3.5 | 0.00 | 0.05 | 0.00 | 57 | 1012.2 |
| 20260510160830 | 74 | 216 | 0.9 | 3.5 | 0.00 | 0.05 | 0.00 | 58 | 1012.3 |
| 20260510160800 | 72 | 311 | 0.0 | 2.6 | 0.00 | 0.01 | 0.01 | 63 | 1010.8 |
| 20260510160256 | 73 | 201 | 1.7 | 2.6 | 0.00 | 0.01 | 0.01 | 64 | 1010.7 |
| 20260510160101 | 74 | 251 | 0.9 | 3.5 | 0.00 | 0.05 | 0.00 | 56 | 1012.3 |
| 20260510155751 | 73 | 209 | 0.0 | 2.6 | 0.00 | 0.01 | 0.01 | 63 | 1010.6 |
| 20260510155548 | 74 | 200 | 1.7 | 3.5 | 0.00 | 0.05 | 0.00 | 56 | 1012.4 |
| 20260510155248 | 72 | 262 | 0.9 | 1.7 | 0.00 | 0.01 | 0.01 | 67 | 1010.7 |
| 20260510155130 | 73 | 223 | 0.9 | 3.5 | 0.00 | 0.06 | 0.00 | 60 | 1012.3 |
| 20260510155115 | 73 | 190 | 0.9 | 3.5 | 0.00 | 0.05 | 0.00 | 63 | 1012.3 |
| 20260510154744 | 73 | 180 | 1.7 | 2.6 | 0.00 | 0.01 | 0.01 | 67 | 1011.0 |
| 20260510154240 | 72 | 151 | 0.0 | 2.6 | 0.00 | 0.01 | 0.01 | 64 | 1010.7 |
| 20260510154045 | 74 | 199 | 1.7 | 4.3 | 0.00 | 0.06 | 0.00 | 60 | 1012.3 |
| 20260510153735 | 71 | 68 | 0.0 | 2.6 | 0.00 | 0.01 | 0.01 | 65 | 1010.6 |
| 20260510153544 | 74 | 288 | 0.9 | 4.3 | 0.00 | 0.06 | 0.00 | 56 | 1012.3 |
| 20260510153231 | 72 | 326 | 1.7 | 3.5 | 0.00 | 0.01 | 0.01 | 64 | 1010.8 |
| 20260510153045 | 74 | 193 | 0.9 | 3.5 | 0.00 | 0.07 | 0.00 | 59 | 1012.3 |
| 20260510152728 | 71 | 215 | 0.0 | 2.6 | 0.00 | 0.01 | 0.01 | 66 | 1010.8 |
| 20260510152538 | 74 | 264 | 0.9 | 3.5 | 0.00 | 0.08 | 0.00 | 56 | 1012.3 |
| 20260510152317 | 74 | 296 | 0.9 | 2.6 | 0.00 | 0.08 | 0.00 | 57 | 1012.3 |
| 20260510152224 | 71 | 354 | 2.6 | 3.5 | 0.00 | 0.01 | 0.01 | 64 | 1010.6 |
| 20260510151721 | 72 | 313 | 2.6 | 2.6 | 0.00 | 0.01 | 0.01 | 69 | 1010.8 |
| 20260510151528 | 73 | 202 | 0.0 | 0.0 | 0.00 | 0.09 | 0.00 | 61 | 1012.3 |
| 20260510151220 | 71 | 154 | 0.9 | 1.7 | 0.00 | 0.01 | 0.01 | 68 | 1010.7 |
| 20260510151039 | 74 | 238 | 0.0 | 0.0 | 0.00 | 0.09 | 0.00 | 58 | 1012.3 |
| 20260510150715 | 72 | 219 | 2.6 | 2.6 | 0.00 | 0.01 | 0.01 | 66 | 1010.6 |
| 20260510150525 | 73 | 321 | 0.0 | 0.9 | 0.00 | 0.10 | 0.00 | 59 | 1012.2 |
| 20260510150210 | 72 | 14 | 0.9 | 1.7 | 0.00 | 0.01 | 0.01 | 73 | 1010.7 |
| 20260510150027 | 73 | 274 | 0.9 | 3.5 | 0.00 | 0.10 | 0.00 | 63 | 1012.2 |
| 20260510145707 | 71 | 306 | 3.5 | 3.5 | 0.00 | 0.01 | 0.01 | 70 | 1010.5 |
| 20260510145527 | 73 | 278 | 0.9 | 3.5 | 0.00 | 0.10 | 0.00 | 62 | 1012.2 |
| 20260510145203 | 70 | 275 | 0.0 | 3.5 | 0.00 | 0.01 | 0.01 | 71 | 1010.8 |
| 20260510145024 | 72 | 240 | 0.9 | 3.5 | 0.00 | 0.11 | 0.00 | 62 | 1012.1 |
| 20260510144659 | 70 | 165 | 0.0 | 1.7 | 0.00 | 0.01 | 0.01 | 73 | 1010.7 |
| 20260510144518 | 71 | 183 | 0.9 | 3.5 | 0.00 | 0.11 | 0.00 | 66 | 1012.1 |
| 20260510144155 | 70 | 0 | 0.0 | 1.7 | 0.00 | 0.01 | 0.01 | 72 | 1010.5 |
| 20260510144009 | 71 | 187 | 0.0 | 2.6 | 0.00 | 0.11 | 0.00 | 66 | 1012.1 |
| 20260510143651 | 69 | 180 | 0.0 | 2.6 | 0.00 | 0.01 | 0.01 | 72 | 1010.7 |
| 20260510143510 | 71 | 194 | 0.0 | 0.0 | 0.00 | 0.11 | 0.00 | 66 | 1012.2 |
| 20260510143148 | 69 | 119 | 0.0 | 3.5 | 0.00 | 0.01 | 0.01 | 73 | 1010.6 |
| 20260510143009 | 71 | 296 | 0.0 | 0.0 | 0.00 | 0.12 | 0.00 | 71 | 1012.1 |
| 20260510142644 | 69 | 15 | 0.0 | 1.7 | 0.00 | 0.01 | 0.01 | 75 | 1010.5 |
| 20260510142510 | 69 | 229 | 0.0 | 3.5 | 0.00 | 0.12 | 0.00 | 67 | 1012.1 |
| 20260510142141 | 69 | 168 | 1.7 | 1.7 | 0.00 | 0.01 | 0.01 | 75 | 1010.6 |
| 20260510142010 | 69 | 167 | 0.0 | 3.5 | 0.00 | 0.12 | 0.00 | 71 | 1012.1 |
| 20260510141637 | 68 | 163 | 2.6 | 4.3 | 0.00 | 0.01 | 0.01 | 74 | 1010.3 |
| 20260510141509 | 68 | 173 | 0.0 | 0.0 | 0.00 | 0.12 | 0.00 | 70 | 1012.1 |
| 20260510141136 | 68 | 171 | 3.5 | 3.5 | 0.00 | 0.01 | 0.01 | 75 | 1010.6 |
| 20260510141006 | 69 | 178 | 0.0 | 2.6 | 0.00 | 0.12 | 0.00 | 71 | 1012.2 |
| 20260510140632 | 68 | 111 | 0.0 | 0.9 | 0.00 | 0.01 | 0.01 | 79 | 1010.4 |
| 20260510140503 | 68 | 178 | 0.0 | 3.5 | 0.00 | 0.12 | 0.00 | 77 | 1012.2 |
| 20260510140131 | 66 | 124 | 2.6 | 2.6 | 0.00 | 0.01 | 0.01 | 76 | 1010.5 |
| 20260510140003 | 67 | 177 | 0.0 | 3.5 | 0.00 | 0.12 | 0.00 | 70 | 1012.2 |
| 20260510135627 | 66 | 165 | 0.9 | 2.6 | 0.00 | 0.01 | 0.01 | 76 | 1010.7 |
| 20260510135452 | 68 | 190 | 0.0 | 1.7 | 0.00 | 0.12 | 0.00 | 69 | 1012.3 |
| 20260510135123 | 66 | 188 | 0.0 | 1.7 | 0.00 | 0.01 | 0.01 | 77 | 1010.5 |
| 20260510134948 | 68 | 209 | 0.0 | 0.0 | 0.00 | 0.12 | 0.00 | 74 | 1012.2 |
| 20260510134732 | 66 | 242 | 0.0 | 0.0 | 0.00 | 0.12 | 0.00 | 77 | 1012.1 |
| 20260510134620 | 66 | 246 | 0.0 | 1.7 | 0.00 | 0.01 | 0.01 | 80 | 1010.4 |
| 20260510134117 | 66 | 154 | 0.0 | 1.7 | 0.00 | 0.01 | 0.01 | 80 | 1010.4 |
| 20260510133946 | 65 | 240 | 0.0 | 0.0 | 0.00 | 0.12 | 0.00 | 81 | 1012.2 |
| 20260510133614 | 64 | 0 | 0.0 | 1.7 | 0.00 | 0.01 | 0.01 | 82 | 1010.4 |
| 20260510133445 | 64 | 244 | 0.0 | 0.0 | 0.00 | 0.12 | 0.00 | 82 | 1012.2 |
| 20260510133109 | 64 | 4 | 1.7 | 1.7 | 0.00 | 0.01 | 0.01 | 84 | 1010.5 |
| 20260510132944 | 63 | 244 | 0.0 | 0.0 | 0.00 | 0.12 | 0.00 | 85 | 1012.1 |
| 20260510132606 | 63 | 60 | 0.0 | 1.7 | 0.00 | 0.01 | 0.01 | 86 | 1010.5 |
| 20260510132444 | 62 | 244 | 0.0 | 0.0 | 0.00 | 0.12 | 0.00 | 84 | 1012.1 |
| 20260510132235 | 62 | 242 | 0.0 | 0.0 | 0.00 | 0.12 | 0.00 | 84 | 1012.1 |
| 20260510132103 | 63 | 352 | 0.0 | 0.0 | 0.00 | 0.01 | 0.01 | 87 | 1010.5 |
| 20260510131601 | 62 | 99 | 0.0 | 0.9 | 0.00 | 0.01 | 0.01 | 88 | 1010.3 |
| 20260510131444 | 62 | 234 | 0.0 | 0.0 | 0.00 | 0.12 | 0.00 | 84 | 1012.1 |
| 20260510131225 | 62 | 234 | 0.0 | 0.0 | 0.00 | 0.12 | 0.00 | 86 | 1012.1 |
| 20260510131058 | 61 | 188 | 0.0 | 1.7 | 0.00 | 0.01 | 0.01 | 90 | 1010.4 |
| 20260510130554 | 60 | 194 | 0.0 | 1.7 | 0.00 | 0.01 | 0.01 | 93 | 1010.6 |
| 20260510130440 | 62 | 238 | 0.0 | 0.0 | 0.00 | 0.12 | 0.00 | 86 | 1012.2 |
| 20260510130052 | 59 | 35 | 0.0 | 1.7 | 0.00 | 0.01 | 0.01 | 96 | 1010.6 |
| 20260510125938 | 60 | 238 | 0.0 | 0.0 | 0.00 | 0.12 | 0.00 | 89 | 1012.2 |
| 20260510125548 | 58 | 6 | 0.0 | 1.7 | 0.00 | 0.01 | 0.01 | 99 | 1010.5 |
| 20260510125436 | 60 | 237 | 0.0 | 0.0 | 0.00 | 0.12 | 0.00 | 88 | 1012.1 |
| 20260510125044 | 58 | 325 | 0.9 | 1.7 | 0.00 | 0.01 | 0.01 | 99 | 1010.7 |
| 20260510124959 | 60 | 234 | 0.0 | 0.0 | 0.00 | 0.12 | 0.00 | 89 | 1012.0 |
| 20260510124952 | 60 | 234 | 0.0 | 0.0 | 0.00 | 0.12 | 0.00 | 89 | 1012.1 |
| 20260510124541 | 58 | 165 | 0.9 | 0.9 | 0.07 | 0.01 | 0.01 | 99 | 1010.2 |
| 20260510124224 | 60 | 234 | 0.0 | 0.0 | 0.00 | 0.12 | 0.00 | 91 | 1012.1 |
| 20260510124038 | 57 | 82 | 0.0 | 0.9 | 0.07 | 0.01 | 0.01 | 99 | 1010.3 |
| 20260510123533 | 57 | 114 | 0.0 | 1.7 | 0.00 | 0.00 | 0.00 | 99 | 1010.4 |
| 20260510123421 | 59 | 234 | 0.0 | 0.0 | 0.00 | 0.12 | 0.00 | 93 | 1012.1 |
| 20260510123029 | 56 | 66 | 0.0 | 1.7 | 0.00 | 0.00 | 0.00 | 99 | 1010.4 |
| 20260510122921 | 58 | 234 | 0.0 | 0.0 | 0.00 | 0.12 | 0.00 | 95 | 1012.1 |
| 20260510122525 | 56 | 77 | 0.0 | 0.9 | 0.00 | 0.00 | 0.00 | 99 | 1010.5 |
| 20260510122422 | 56 | 234 | 0.0 | 0.0 | 0.00 | 0.12 | 0.00 | 97 | 1012.1 |
| 20260510122021 | 56 | 90 | 0.0 | 1.7 | 0.00 | 0.00 | 0.00 | 99 | 1010.4 |
| 20260510121921 | 55 | 234 | 0.0 | 0.0 | 0.00 | 0.12 | 0.00 | 96 | 1012.0 |
| 20260510121519 | 55 | 66 | 0.9 | 1.7 | 0.00 | 0.00 | 0.00 | 99 | 1010.4 |
| 20260510121420 | 55 | 234 | 0.0 | 0.0 | 0.00 | 0.12 | 0.00 | 96 | 1012.0 |
| 20260510121205 | 55 | 234 | 0.0 | 0.0 | 0.00 | 0.12 | 0.00 | 96 | 1011.9 |
| 20260510121016 | 55 | 23 | 0.0 | 0.9 | 0.00 | 0.00 | 0.00 | 99 | 1010.0 |
| 20260510120514 | 54 | 74 | 0.9 | 0.9 | 0.00 | 0.00 | 0.00 | 99 | 1010.0 |
| 20260510120418 | 53 | 234 | 0.0 | 0.0 | 0.00 | 0.12 | 0.00 | 97 | 1011.8 |
| 20260510120009 | 54 | 114 | 0.0 | 1.7 | 0.00 | 0.00 | 0.00 | 99 | 1010.0 |
| 20260510115917 | 52 | 232 | 0.0 | 0.0 | 0.00 | 0.12 | 0.00 | 97 | 1011.6 |
| 20260510115704 | 52 | 232 | 0.0 | 0.0 | 0.00 | 0.12 | 0.00 | 96 | 1011.6 |
| 20260510115506 | 53 | 126 | 0.9 | 1.7 | 0.00 | 0.00 | 0.00 | 99 | 1010.0 |
| 20260510115002 | 52 | 74 | 0.9 | 0.9 | 0.00 | 0.00 | 0.00 | 99 | 1010.1 |
| 20260510114917 | 51 | 232 | 0.0 | 0.0 | 0.00 | 0.12 | 0.00 | 96 | 1011.6 |
| 20260510114459 | 52 | 99 | 0.0 | 0.9 | 0.00 | 0.00 | 0.00 | 99 | 1009.7 |
| 20260510114416 | 51 | 232 | 0.0 | 0.0 | 0.00 | 0.12 | 0.00 | 96 | 1011.5 |
| 20260510114203 | 51 | 232 | 0.0 | 0.0 | 0.00 | 0.12 | 0.00 | 96 | 1011.2 |
| 20260510113955 | 51 | 90 | 0.0 | 1.7 | 0.00 | 0.00 | 0.00 | 99 | 1009.8 |
| 20260510113450 | 51 | 120 | 0.0 | 1.7 | 0.00 | 0.00 | 0.00 | 99 | 1009.7 |
| 20260510113416 | 51 | 232 | 0.0 | 0.0 | 0.00 | 0.12 | 0.00 | 96 | 1011.2 |
| 20260510112948 | 51 | 96 | 1.7 | 1.7 | 0.00 | 0.00 | 0.00 | 99 | 1009.6 |
| 20260510112913 | 50 | 232 | 0.0 | 0.0 | 0.00 | 0.12 | 0.00 | 96 | 1011.2 |
| 20260510112445 | 51 | 90 | 0.9 | 1.7 | 0.00 | 0.00 | 0.00 | 99 | 1009.4 |
| 20260510112412 | 50 | 232 | 0.0 | 0.0 | 0.00 | 0.12 | 0.00 | 96 | 1011.2 |
| 20260510112153 | 50 | 232 | 0.0 | 0.0 | 0.00 | 0.12 | 0.00 | 96 | 1011.2 |
| 20260510111941 | 51 | 90 | 0.9 | 1.7 | 0.00 | 0.00 | 0.00 | 99 | 1009.5 |
| 20260510111437 | 50 | 69 | 0.0 | 1.7 | 0.00 | 0.00 | 0.00 | 99 | 1009.4 |
| 20260510111410 | 50 | 231 | 0.0 | 0.0 | 0.00 | 0.12 | 0.00 | 96 | 1011.2 |
| 20260510110933 | 50 | 90 | 0.9 | 1.7 | 0.00 | 0.00 | 0.00 | 99 | 1009.0 |
| 20260510110907 | 50 | 231 | 0.0 | 0.0 | 0.00 | 0.12 | 0.00 | 96 | 1011.1 |
| 20260510110430 | 50 | 78 | 0.9 | 1.7 | 0.00 | 0.00 | 0.00 | 99 | 1009.2 |
| 20260510110405 | 50 | 230 | 0.0 | 0.0 | 0.00 | 0.12 | 0.00 | 96 | 1011.1 |
| 20260510105926 | 50 | 81 | 0.0 | 0.9 | 0.00 | 0.00 | 0.00 | 99 | 1009.1 |
| 20260510105905 | 49 | 230 | 0.0 | 0.0 | 0.00 | 0.12 | 0.00 | 96 | 1011.1 |
| 20260510105421 | 50 | 83 | 0.9 | 1.7 | 0.00 | 0.00 | 0.00 | 99 | 1009.2 |
| 20260510105406 | 49 | 230 | 0.0 | 0.0 | 0.00 | 0.12 | 0.00 | 96 | 1011.0 |
| 20260510104916 | 50 | 94 | 1.7 | 2.6 | 0.00 | 0.00 | 0.00 | 99 | 1009.1 |
| 20260510104904 | 49 | 230 | 0.0 | 0.0 | 0.00 | 0.12 | 0.00 | 96 | 1011.1 |
| 20260510104414 | 49 | 98 | 0.9 | 2.6 | 0.00 | 0.00 | 0.00 | 99 | 1009.2 |
| 20260510104354 | 49 | 230 | 0.0 | 0.0 | 0.00 | 0.12 | 0.00 | 96 | 1011.1 |
| 20260510103910 | 49 | 106 | 0.0 | 0.9 | 0.00 | 0.00 | 0.00 | 99 | 1009.8 |
| 20260510103903 | 49 | 230 | 0.0 | 0.0 | 0.00 | 0.12 | 0.00 | 96 | 1011.2 |
| 20260510103408 | 49 | 103 | 1.7 | 1.7 | 0.00 | 0.00 | 0.00 | 99 | 1009.4 |
| 20260510103354 | 49 | 230 | 0.0 | 0.0 | 0.00 | 0.12 | 0.00 | 95 | 1010.9 |
| 20260510102902 | 49 | 106 | 0.0 | 1.7 | 0.00 | 0.00 | 0.00 | 99 | 1009.3 |
| 20260510102853 | 49 | 230 | 0.0 | 0.0 | 0.00 | 0.12 | 0.00 | 96 | 1011.0 |
| 20260510102358 | 49 | 90 | 0.0 | 0.9 | 0.00 | 0.00 | 0.00 | 99 | 1009.1 |
| 20260510102352 | 49 | 230 | 0.0 | 0.0 | 0.00 | 0.12 | 0.00 | 96 | 1010.9 |
| 20260510102142 | 49 | 230 | 0.0 | 0.0 | 0.00 | 0.12 | 0.00 | 96 | 1010.9 |
| 20260510101856 | 49 | 66 | 0.9 | 1.7 | 0.00 | 0.00 | 0.00 | 99 | 1009.1 |
| 20260510101354 | 49 | 230 | 0.0 | 0.0 | 0.00 | 0.12 | 0.00 | 96 | 1010.8 |
| 20260510100854 | 49 | 230 | 0.0 | 0.0 | 0.00 | 0.12 | 0.00 | 95 | 1010.7 |
| 20260510100850 | 49 | 80 | 1.7 | 1.7 | 0.00 | 0.00 | 0.00 | 99 | 1008.8 |
| 20260510100709 | 49 | 230 | 0.0 | 0.0 | 0.00 | 0.12 | 0.00 | 96 | 1010.6 |
| 20260510100418 | 49 | 230 | 0.0 | 0.0 | 0.00 | 0.12 | 0.00 | 95 | 1010.6 |
| 20260510100348 | 49 | 106 | 1.7 | 1.7 | 0.00 | 0.00 | 0.00 | 99 | 1008.9 |
| 20260510095844 | 49 | 110 | 1.7 | 1.7 | 0.00 | 0.00 | 0.00 | 99 | 1008.8 |
| 20260510095351 | 49 | 230 | 0.0 | 0.0 | 0.00 | 0.12 | 0.00 | 95 | 1010.6 |
| 20260510095339 | 50 | 77 | 0.9 | 1.7 | 0.00 | 0.00 | 0.00 | 99 | 1008.8 |
| 20260510095122 | 49 | 230 | 0.0 | 0.0 | 0.00 | 0.12 | 0.00 | 96 | 1010.5 |
| 20260510094839 | 49 | 69 | 0.9 | 1.7 | 0.00 | 0.00 | 0.00 | 99 | 1008.9 |
| 20260510094346 | 49 | 230 | 0.0 | 0.0 | 0.00 | 0.12 | 0.00 | 95 | 1010.3 |
| 20260510094334 | 49 | 84 | 1.7 | 1.7 | 0.00 | 0.00 | 0.00 | 99 | 1008.4 |
| 20260510093844 | 49 | 230 | 0.0 | 0.0 | 0.00 | 0.12 | 0.00 | 95 | 1010.2 |
| 20260510093830 | 49 | 90 | 1.7 | 1.7 | 0.00 | 0.00 | 0.00 | 99 | 1008.2 |
| 20260510093345 | 49 | 230 | 0.0 | 0.0 | 0.00 | 0.12 | 0.00 | 96 | 1010.2 |
| 20260510093326 | 49 | 96 | 1.7 | 1.7 | 0.00 | 0.00 | 0.00 | 99 | 1008.5 |
| 20260510092842 | 50 | 230 | 0.0 | 0.0 | 0.00 | 0.12 | 0.00 | 96 | 1010.2 |
| 20260510092822 | 49 | 113 | 1.7 | 2.6 | 0.00 | 0.00 | 0.00 | 99 | 1008.2 |
| 20260510092626 | 50 | 230 | 0.0 | 0.0 | 0.00 | 0.12 | 0.00 | 96 | 1010.3 |
| 20260510092319 | 50 | 103 | 0.9 | 1.7 | 0.00 | 0.00 | 0.00 | 99 | 1008.6 |
| 20260510091837 | 50 | 230 | 0.0 | 0.0 | 0.00 | 0.12 | 0.00 | 96 | 1010.3 |
| 20260510091815 | 50 | 60 | 1.7 | 1.7 | 0.00 | 0.00 | 0.00 | 99 | 1008.6 |
| 20260510091338 | 50 | 230 | 0.0 | 0.0 | 0.00 | 0.12 | 0.00 | 96 | 1010.2 |
| 20260510091312 | 50 | 75 | 0.9 | 1.7 | 0.00 | 0.00 | 0.00 | 99 | 1008.4 |
| 20260510090838 | 50 | 230 | 0.0 | 0.0 | 0.00 | 0.12 | 0.00 | 96 | 1010.1 |
| 20260510090809 | 50 | 90 | 1.7 | 1.7 | 0.00 | 0.00 | 0.00 | 99 | 1008.3 |
| 20260510090335 | 50 | 230 | 0.0 | 0.0 | 0.00 | 0.12 | 0.00 | 96 | 1010.1 |
| 20260510090305 | 50 | 108 | 1.7 | 1.7 | 0.00 | 0.00 | 0.00 | 99 | 1008.4 |
| 20260510085836 | 50 | 232 | 0.0 | 0.0 | 0.00 | 0.12 | 0.00 | 96 | 1010.1 |
| 20260510085801 | 50 | 35 | 0.9 | 1.7 | 0.00 | 0.00 | 0.00 | 99 | 1008.4 |
| 20260510085336 | 50 | 230 | 0.0 | 0.0 | 0.00 | 0.12 | 0.00 | 96 | 1010.0 |
| 20260510085255 | 50 | 90 | 1.7 | 1.7 | 0.00 | 0.00 | 0.00 | 99 | 1008.3 |
| 20260510084834 | 50 | 230 | 0.0 | 0.0 | 0.00 | 0.12 | 0.00 | 96 | 1010.0 |
| 20260510084751 | 50 | 83 | 2.6 | 2.6 | 0.00 | 0.00 | 0.00 | 99 | 1008.4 |
| 20260510084334 | 50 | 230 | 0.0 | 0.0 | 0.00 | 0.12 | 0.00 | 95 | 1010.2 |
| 20260510084248 | 50 | 105 | 1.7 | 1.7 | 0.00 | 0.00 | 0.00 | 99 | 1008.5 |
| 20260510083836 | 50 | 232 | 0.0 | 0.0 | 0.00 | 0.12 | 0.00 | 95 | 1010.3 |
| 20260510083745 | 50 | 131 | 0.0 | 1.7 | 0.00 | 0.00 | 0.00 | 99 | 1008.7 |
| 20260510083619 | 50 | 232 | 0.0 | 0.0 | 0.00 | 0.12 | 0.00 | 95 | 1010.2 |
| 20260510083242 | 50 | 117 | 1.7 | 2.6 | 0.00 | 0.00 | 0.00 | 99 | 1008.6 |
| 20260510082834 | 50 | 170 | 0.0 | 2.6 | 0.00 | 0.12 | 0.00 | 95 | 1010.3 |
| 20260510082738 | 50 | 71 | 1.7 | 3.5 | 0.00 | 0.00 | 0.00 | 99 | 1008.3 |
| 20260510082336 | 50 | 243 | 0.0 | 2.6 | 0.00 | 0.12 | 0.00 | 96 | 1010.5 |
| 20260510082234 | 50 | 342 | 0.9 | 1.7 | 0.00 | 0.00 | 0.00 | 99 | 1008.7 |
| 20260510081835 | 50 | 95 | 0.9 | 5.2 | 0.00 | 0.12 | 0.00 | 96 | 1010.2 |
| 20260510081733 | 50 | 111 | 4.3 | 4.3 | 0.00 | 0.00 | 0.00 | 99 | 1008.6 |
| 20260510081342 | 50 | 94 | 1.7 | 5.2 | 0.00 | 0.12 | 0.00 | 96 | 1010.3 |
| 20260510081230 | 51 | 117 | 2.6 | 4.3 | 0.00 | 0.00 | 0.00 | 99 | 1008.4 |
| 20260510081121 | 50 | 86 | 1.7 | 3.5 | 0.00 | 0.12 | 0.00 | 96 | 1010.5 |
| 20260510080725 | 50 | 0 | 1.7 | 3.5 | 0.00 | 0.00 | 0.00 | 99 | 1009.1 |
| 20260510080330 | 49 | 108 | 1.7 | 5.2 | 0.00 | 0.12 | 0.00 | 96 | 1009.9 |
| 20260510080221 | 50 | 124 | 4.3 | 6.1 | 0.00 | 0.00 | 0.00 | 99 | 1008.3 |
| 20260510075830 | 49 | 286 | 1.7 | 6.1 | 0.00 | 0.12 | 0.00 | 96 | 1010.6 |
| 20260510075718 | 50 | 356 | 1.7 | 3.5 | 0.00 | 0.00 | 0.00 | 99 | 1008.6 |
| 20260510075610 | 48 | 103 | 2.6 | 7.8 | 0.00 | 0.12 | 0.00 | 95 | 1010.0 |
| 20260510075216 | 49 | 95 | 1.7 | 3.5 | 0.00 | 0.00 | 0.00 | 99 | 1008.8 |
| 20260510074829 | 47 | 94 | 1.7 | 7.8 | 0.00 | 0.12 | 0.00 | 95 | 1009.8 |
| 20260510074712 | 49 | 104 | 5.2 | 8.7 | 0.00 | 0.00 | 0.00 | 99 | 1008.0 |
| 20260510074614 | 47 | 281 | 0.9 | 7.8 | 0.00 | 0.12 | 0.00 | 94 | 1010.5 |
| 20260510074209 | 46 | 82 | 0.0 | 2.6 | 0.00 | 0.00 | 0.00 | 99 | 1008.1 |
| 20260510074111 | 47 | 78 | 0.0 | 0.0 | 0.00 | 0.12 | 0.00 | 95 | 1009.6 |
| 20260510073705 | 46 | 90 | 1.7 | 2.6 | 0.00 | 0.00 | 0.00 | 99 | 1007.8 |
| 20260510073322 | 47 | 78 | 0.0 | 0.0 | 0.00 | 0.12 | 0.00 | 95 | 1009.6 |
| 20260510073201 | 47 | 78 | 1.7 | 2.6 | 0.00 | 0.00 | 0.00 | 99 | 1007.8 |
| 20260510072825 | 47 | 78 | 0.0 | 0.0 | 0.00 | 0.12 | 0.00 | 95 | 1009.6 |
| 20260510072657 | 47 | 109 | 2.6 | 2.6 | 0.00 | 0.00 | 0.00 | 99 | 1008.1 |
| 20260510072322 | 47 | 78 | 0.0 | 0.0 | 0.00 | 0.12 | 0.00 | 95 | 1009.6 |
| 20260510072154 | 47 | 94 | 1.7 | 2.6 | 0.00 | 0.00 | 0.00 | 99 | 1008.0 |
| 20260510071819 | 47 | 78 | 0.0 | 0.0 | 0.00 | 0.12 | 0.00 | 94 | 1009.6 |
| 20260510071650 | 47 | 59 | 1.7 | 1.7 | 0.00 | 0.00 | 0.00 | 99 | 1008.0 |
| 20260510071317 | 47 | 78 | 0.0 | 0.0 | 0.00 | 0.12 | 0.00 | 94 | 1009.6 |
| 20260510071147 | 47 | 119 | 1.7 | 2.6 | 0.00 | 0.00 | 0.00 | 99 | 1008.0 |
| 20260510070846 | 47 | 78 | 0.0 | 0.0 | 0.00 | 0.12 | 0.00 | 94 | 1009.7 |
| 20260510070835 | 47 | 78 | 0.0 | 0.0 | 0.00 | 0.12 | 0.00 | 94 | 1009.7 |
| 20260510070645 | 47 | 81 | 0.0 | 1.7 | 0.00 | 0.00 | 0.00 | 99 | 1008.0 |
| 20260510070142 | 47 | 26 | 1.7 | 2.6 | 0.00 | 0.00 | 0.00 | 99 | 1008.2 |
| 20260510065815 | 47 | 78 | 0.0 | 0.0 | 0.00 | 0.12 | 0.00 | 94 | 1009.7 |
| 20260510065637 | 47 | 53 | 0.0 | 1.7 | 0.00 | 0.00 | 0.00 | 99 | 1008.0 |
| 20260510065306 | 47 | 78 | 0.0 | 0.0 | 0.00 | 0.12 | 0.00 | 94 | 1009.5 |
| 20260510065134 | 46 | 90 | 1.7 | 2.6 | 0.00 | 0.00 | 0.00 | 99 | 1007.8 |
| 20260510064755 | 47 | 78 | 0.0 | 0.0 | 0.00 | 0.12 | 0.00 | 94 | 1009.4 |
| 20260510064630 | 46 | 85 | 1.7 | 2.6 | 0.00 | 0.00 | 0.00 | 99 | 1007.6 |
| 20260510064254 | 47 | 78 | 0.0 | 0.0 | 0.00 | 0.12 | 0.00 | 94 | 1009.3 |
| 20260510064127 | 46 | 95 | 1.7 | 2.6 | 0.00 | 0.00 | 0.00 | 99 | 1007.6 |
| 20260510063753 | 47 | 78 | 0.0 | 0.0 | 0.00 | 0.12 | 0.00 | 94 | 1009.3 |
| 20260510063624 | 46 | 81 | 1.7 | 2.6 | 0.00 | 0.00 | 0.00 | 99 | 1007.6 |
| 20260510063250 | 47 | 78 | 0.0 | 0.0 | 0.00 | 0.12 | 0.00 | 94 | 1009.3 |
| 20260510063121 | 46 | 98 | 1.7 | 2.6 | 0.00 | 0.00 | 0.00 | 99 | 1007.9 |
| 20260510062751 | 47 | 78 | 0.0 | 0.0 | 0.00 | 0.12 | 0.00 | 94 | 1009.3 |
| 20260510062617 | 47 | 59 | 1.7 | 2.6 | 0.00 | 0.00 | 0.00 | 99 | 1007.8 |
| 20260510062248 | 47 | 78 | 0.0 | 0.0 | 0.00 | 0.12 | 0.00 | 94 | 1009.3 |
| 20260510062113 | 47 | 68 | 1.7 | 1.7 | 0.00 | 0.00 | 0.00 | 99 | 1007.7 |
| 20260510061744 | 47 | 78 | 0.0 | 0.0 | 0.00 | 0.12 | 0.00 | 94 | 1009.2 |
| 20260510061609 | 47 | 99 | 1.7 | 1.7 | 0.00 | 0.00 | 0.00 | 99 | 1007.7 |
| 20260510061244 | 47 | 78 | 0.0 | 0.0 | 0.00 | 0.12 | 0.00 | 94 | 1009.2 |
| 20260510061106 | 47 | 99 | 1.7 | 2.6 | 0.00 | 0.00 | 0.00 | 99 | 1007.4 |
| 20260510060733 | 47 | 78 | 0.0 | 0.0 | 0.00 | 0.12 | 0.00 | 94 | 1009.1 |
| 20260510060602 | 47 | 85 | 1.7 | 2.6 | 0.00 | 0.00 | 0.00 | 99 | 1007.6 |
| 20260510060219 | 47 | 78 | 0.0 | 0.0 | 0.00 | 0.12 | 0.00 | 94 | 1009.2 |
| 20260510060059 | 47 | 93 | 2.6 | 2.6 | 0.00 | 0.00 | 0.00 | 99 | 1007.5 |
| 20260510055711 | 47 | 78 | 0.0 | 0.0 | 0.00 | 0.12 | 0.00 | 94 | 1009.3 |
| 20260510055554 | 47 | 90 | 1.7 | 2.6 | 0.00 | 0.00 | 0.00 | 99 | 1007.9 |
| 20260510055210 | 47 | 78 | 0.0 | 0.0 | 0.00 | 0.12 | 0.00 | 94 | 1009.3 |
| 20260510055053 | 47 | 100 | 1.7 | 2.6 | 0.00 | 0.00 | 0.00 | 99 | 1007.8 |
| 20260510054710 | 47 | 78 | 0.0 | 0.0 | 0.00 | 0.12 | 0.00 | 94 | 1009.4 |
| 20260510054549 | 47 | 77 | 0.9 | 1.7 | 0.00 | 0.00 | 0.00 | 99 | 1007.8 |
| 20260510054208 | 47 | 78 | 0.0 | 0.0 | 0.00 | 0.12 | 0.00 | 94 | 1009.4 |
| 20260510054043 | 47 | 90 | 1.7 | 2.6 | 0.00 | 0.00 | 0.00 | 99 | 1008.0 |
| 20260510053706 | 47 | 78 | 0.0 | 0.0 | 0.00 | 0.12 | 0.00 | 94 | 1009.5 |
| 20260510053538 | 47 | 112 | 1.7 | 1.7 | 0.00 | 0.00 | 0.00 | 99 | 1007.8 |
| 20260510053205 | 47 | 78 | 0.0 | 0.0 | 0.00 | 0.12 | 0.00 | 94 | 1009.5 |
| 20260510053035 | 47 | 100 | 2.6 | 2.6 | 0.00 | 0.00 | 0.00 | 99 | 1007.9 |
| 20260510052946 | 48 | 78 | 0.0 | 0.0 | 0.00 | 0.12 | 0.00 | 93 | 1009.5 |
| 20260510052531 | 47 | 95 | 1.7 | 1.7 | 0.00 | 0.00 | 0.00 | 99 | 1007.8 |
| 20260510052149 | 48 | 78 | 0.0 | 0.0 | 0.00 | 0.12 | 0.00 | 94 | 1009.5 |
| 20260510052027 | 47 | 85 | 1.7 | 1.7 | 0.00 | 0.00 | 0.00 | 99 | 1008.2 |
| 20260510051927 | 48 | 78 | 0.0 | 0.0 | 0.00 | 0.12 | 0.00 | 94 | 1009.5 |
| 20260510051523 | 47 | 90 | 1.7 | 1.7 | 0.00 | 0.00 | 0.00 | 99 | 1008.0 |
| 20260510051129 | 48 | 78 | 0.0 | 0.0 | 0.00 | 0.12 | 0.00 | 93 | 1009.6 |
| 20260510051020 | 47 | 90 | 1.7 | 2.6 | 0.00 | 0.00 | 0.00 | 99 | 1007.8 |
| 20260510050621 | 48 | 78 | 0.0 | 0.0 | 0.00 | 0.12 | 0.00 | 93 | 1009.7 |
| 20260510050517 | 48 | 90 | 1.7 | 1.7 | 0.00 | 0.00 | 0.00 | 99 | 1007.9 |
| 20260510050407 | 48 | 78 | 0.0 | 0.0 | 0.00 | 0.12 | 0.00 | 93 | 1009.6 |
| 20260510050014 | 48 | 90 | 1.7 | 1.7 | 0.00 | 0.00 | 0.00 | 99 | 1008.0 |
| 20260510045621 | 48 | 78 | 0.0 | 0.0 | 0.00 | 0.12 | 0.00 | 93 | 1009.6 |
| 20260510045512 | 48 | 95 | 1.7 | 2.6 | 0.00 | 0.00 | 0.00 | 99 | 1007.9 |
| 20260510045120 | 48 | 78 | 0.0 | 0.0 | 0.00 | 0.12 | 0.00 | 93 | 1009.7 |
| 20260510045007 | 48 | 90 | 1.7 | 1.7 | 0.00 | 0.00 | 0.00 | 99 | 1008.1 |
| 20260510044858 | 48 | 78 | 0.0 | 0.0 | 0.00 | 0.12 | 0.00 | 93 | 1009.7 |
| 20260510044504 | 48 | 90 | 1.7 | 1.7 | 0.00 | 0.00 | 0.00 | 99 | 1008.0 |
| 20260510044118 | 48 | 78 | 0.0 | 0.0 | 0.00 | 0.12 | 0.00 | 93 | 1009.7 |
| 20260510044002 | 48 | 84 | 0.9 | 1.7 | 0.00 | 0.00 | 0.00 | 99 | 1008.1 |
| 20260510043617 | 48 | 78 | 0.0 | 0.0 | 0.00 | 0.12 | 0.00 | 93 | 1009.7 |
| 20260510043457 | 48 | 80 | 1.7 | 1.7 | 0.00 | 0.00 | 0.00 | 99 | 1007.9 |
| 20260510043114 | 49 | 78 | 0.0 | 0.0 | 0.00 | 0.12 | 0.00 | 93 | 1009.7 |
| 20260510042956 | 48 | 90 | 1.7 | 1.7 | 0.00 | 0.00 | 0.00 | 99 | 1008.2 |
| 20260510042613 | 49 | 78 | 0.0 | 0.0 | 0.00 | 0.12 | 0.00 | 93 | 1009.8 |
| 20260510042452 | 48 | 103 | 1.7 | 2.6 | 0.00 | 0.00 | 0.00 | 99 | 1008.2 |
| 20260510042102 | 49 | 78 | 0.0 | 0.0 | 0.00 | 0.12 | 0.00 | 93 | 1009.8 |
| 20260510041947 | 48 | 90 | 1.7 | 1.7 | 0.00 | 0.00 | 0.00 | 99 | 1008.2 |
| 20260510041841 | 49 | 78 | 0.0 | 0.0 | 0.00 | 0.12 | 0.00 | 93 | 1009.8 |
| 20260510041444 | 48 | 85 | 1.7 | 1.7 | 0.00 | 0.00 | 0.00 | 99 | 1008.2 |
| 20260510041107 | 49 | 78 | 0.0 | 0.0 | 0.00 | 0.12 | 0.00 | 93 | 1009.8 |
| 20260510040946 | 49 | 78 | 0.0 | 0.0 | 0.00 | 0.12 | 0.00 | 93 | 1009.9 |
| 20260510040942 | 48 | 90 | 1.7 | 1.7 | 0.00 | 0.00 | 0.00 | 99 | 1008.2 |
| 20260510040438 | 49 | 101 | 1.7 | 1.7 | 0.00 | 0.00 | 0.00 | 99 | 1008.3 |
| 20260510035934 | 49 | 98 | 1.7 | 1.7 | 0.00 | 0.15 | 0.15 | 99 | 1008.2 |
| 20260510035835 | 49 | 78 | 0.0 | 0.0 | 0.00 | 0.12 | 0.12 | 93 | 1009.9 |
| 20260510035430 | 49 | 77 | 0.9 | 1.7 | 0.00 | 0.15 | 0.15 | 99 | 1008.4 |
| 20260510035050 | 49 | 78 | 0.0 | 0.0 | 0.00 | 0.12 | 0.12 | 93 | 1009.9 |
| 20260510034925 | 49 | 90 | 1.7 | 1.7 | 0.00 | 0.15 | 0.15 | 99 | 1008.4 |
| 20260510034547 | 49 | 78 | 0.0 | 0.0 | 0.00 | 0.12 | 0.12 | 93 | 1009.8 |
| 20260510034424 | 49 | 90 | 1.7 | 1.7 | 0.00 | 0.15 | 0.15 | 99 | 1008.4 |
| 20260510034047 | 49 | 78 | 0.0 | 0.0 | 0.00 | 0.12 | 0.12 | 93 | 1009.8 |
| 20260510033919 | 49 | 78 | 0.9 | 1.7 | 0.00 | 0.15 | 0.15 | 99 | 1008.3 |
| 20260510033542 | 49 | 78 | 0.0 | 0.0 | 0.00 | 0.12 | 0.12 | 93 | 1009.8 |
| 20260510033416 | 49 | 80 | 1.7 | 1.7 | 0.00 | 0.15 | 0.15 | 99 | 1008.0 |
| 20260510033039 | 50 | 78 | 0.0 | 0.0 | 0.00 | 0.12 | 0.12 | 92 | 1009.9 |
| 20260510032913 | 49 | 120 | 1.7 | 1.7 | 0.00 | 0.15 | 0.15 | 99 | 1008.3 |
| 20260510032538 | 50 | 78 | 0.0 | 0.0 | 0.00 | 0.12 | 0.12 | 93 | 1009.8 |
| 20260510032410 | 49 | 102 | 0.9 | 1.7 | 0.00 | 0.15 | 0.15 | 99 | 1008.3 |
| 20260510032036 | 50 | 78 | 0.0 | 0.0 | 0.00 | 0.12 | 0.12 | 93 | 1009.8 |
| 20260510031905 | 49 | 90 | 1.7 | 1.7 | 0.00 | 0.15 | 0.15 | 99 | 1008.2 |
| 20260510031533 | 50 | 78 | 0.0 | 0.0 | 0.00 | 0.12 | 0.12 | 93 | 1009.7 |
| 20260510031400 | 50 | 90 | 1.7 | 1.7 | 0.00 | 0.15 | 0.15 | 99 | 1008.0 |
| 20260510031032 | 50 | 78 | 0.0 | 0.0 | 0.00 | 0.12 | 0.12 | 92 | 1009.7 |
| 20260510030855 | 49 | 90 | 1.7 | 1.7 | 0.00 | 0.15 | 0.15 | 99 | 1008.1 |
| 20260510030529 | 50 | 78 | 0.0 | 0.0 | 0.00 | 0.12 | 0.12 | 92 | 1009.7 |
| 20260510030351 | 50 | 95 | 1.7 | 1.7 | 0.00 | 0.15 | 0.15 | 99 | 1008.3 |
| 20260510030027 | 50 | 78 | 0.0 | 0.0 | 0.00 | 0.12 | 0.12 | 92 | 1009.6 |
| 20260510025849 | 50 | 96 | 1.7 | 1.7 | 0.00 | 0.15 | 0.15 | 99 | 1008.0 |
| 20260510025525 | 50 | 78 | 0.0 | 0.0 | 0.00 | 0.12 | 0.12 | 92 | 1009.6 |
| 20260510025346 | 50 | 70 | 1.7 | 1.7 | 0.00 | 0.15 | 0.15 | 99 | 1008.1 |
| 20260510025024 | 51 | 78 | 0.0 | 0.0 | 0.00 | 0.12 | 0.12 | 92 | 1009.5 |
| 20260510024843 | 50 | 96 | 1.7 | 1.7 | 0.00 | 0.15 | 0.15 | 99 | 1008.0 |
| 20260510024523 | 51 | 78 | 0.0 | 0.0 | 0.00 | 0.12 | 0.12 | 92 | 1009.4 |
| 20260510024340 | 50 | 90 | 0.9 | 1.7 | 0.00 | 0.15 | 0.15 | 99 | 1008.1 |
| 20260510024024 | 51 | 78 | 0.0 | 0.0 | 0.00 | 0.12 | 0.12 | 92 | 1009.4 |
| 20260510023836 | 50 | 103 | 1.7 | 2.6 | 0.00 | 0.15 | 0.15 | 99 | 1008.0 |
| 20260510023523 | 51 | 78 | 0.0 | 0.0 | 0.00 | 0.12 | 0.12 | 92 | 1009.4 |
| 20260510023333 | 50 | 81 | 1.7 | 2.6 | 0.00 | 0.15 | 0.15 | 99 | 1007.9 |
| 20260510023022 | 51 | 78 | 0.0 | 0.0 | 0.00 | 0.12 | 0.12 | 92 | 1009.4 |
| 20260510022830 | 50 | 84 | 1.7 | 1.7 | 0.00 | 0.15 | 0.15 | 99 | 1008.1 |
| 20260510022524 | 51 | 78 | 0.0 | 0.0 | 0.00 | 0.12 | 0.12 | 92 | 1009.6 |
| 20260510022329 | 51 | 95 | 1.7 | 1.7 | 0.00 | 0.15 | 0.15 | 99 | 1008.1 |
| 20260510022023 | 51 | 78 | 0.0 | 0.0 | 0.00 | 0.12 | 0.12 | 92 | 1009.4 |
| 20260510021828 | 51 | 90 | 1.7 | 1.7 | 0.00 | 0.15 | 0.15 | 99 | 1008.2 |
| 20260510021510 | 51 | 78 | 0.0 | 0.0 | 0.00 | 0.12 | 0.12 | 92 | 1009.4 |
| 20260510021327 | 51 | 84 | 1.7 | 1.7 | 0.00 | 0.15 | 0.15 | 99 | 1008.1 |
| 20260510020958 | 51 | 78 | 0.0 | 0.0 | 0.00 | 0.12 | 0.12 | 92 | 1009.5 |
| 20260510020822 | 51 | 90 | 1.7 | 1.7 | 0.00 | 0.15 | 0.15 | 99 | 1007.8 |
| 20260510020458 | 52 | 78 | 0.0 | 0.0 | 0.00 | 0.12 | 0.12 | 92 | 1009.4 |
| 20260510020317 | 51 | 68 | 1.7 | 1.7 | 0.00 | 0.15 | 0.15 | 99 | 1008.0 |
| 20260510015959 | 52 | 78 | 0.0 | 0.0 | 0.00 | 0.12 | 0.12 | 92 | 1009.4 |
| 20260510015813 | 51 | 101 | 1.7 | 1.7 | 0.00 | 0.15 | 0.15 | 99 | 1008.0 |
| 20260510015456 | 52 | 78 | 0.0 | 0.0 | 0.00 | 0.12 | 0.12 | 92 | 1009.3 |
| 20260510015310 | 51 | 84 | 1.7 | 1.7 | 0.00 | 0.15 | 0.15 | 99 | 1007.9 |
| 20260510014952 | 52 | 78 | 0.0 | 0.0 | 0.00 | 0.12 | 0.12 | 92 | 1009.3 |
| 20260510014805 | 52 | 68 | 1.7 | 1.7 | 0.00 | 0.15 | 0.15 | 99 | 1007.9 |
| 20260510014736 | 52 | 78 | 0.0 | 0.0 | 0.00 | 0.12 | 0.12 | 92 | 1009.3 |
| 20260510014302 | 52 | 90 | 1.7 | 1.7 | 0.00 | 0.15 | 0.15 | 99 | 1007.7 |
| 20260510013950 | 53 | 78 | 0.0 | 0.0 | 0.00 | 0.12 | 0.12 | 92 | 1009.2 |
| 20260510013758 | 52 | 86 | 1.7 | 1.7 | 0.00 | 0.15 | 0.15 | 99 | 1007.7 |
| 20260510013500 | 53 | 78 | 0.0 | 0.0 | 0.00 | 0.12 | 0.12 | 91 | 1009.2 |
| 20260510013254 | 52 | 82 | 1.7 | 2.6 | 0.00 | 0.15 | 0.15 | 99 | 1007.5 |
| 20260510012937 | 53 | 78 | 0.0 | 0.0 | 0.00 | 0.12 | 0.12 | 91 | 1009.1 |
| 20260510012749 | 52 | 90 | 1.7 | 2.6 | 0.00 | 0.15 | 0.15 | 99 | 1007.6 |
| 20260510012427 | 53 | 78 | 0.0 | 0.0 | 0.00 | 0.12 | 0.12 | 91 | 1009.1 |
| 20260510012244 | 52 | 90 | 1.7 | 2.6 | 0.00 | 0.15 | 0.15 | 99 | 1007.4 |
| 20260510011923 | 53 | 78 | 0.0 | 0.0 | 0.00 | 0.12 | 0.12 | 91 | 1009.1 |
| 20260510011743 | 52 | 97 | 2.6 | 2.6 | 0.00 | 0.15 | 0.15 | 98 | 1007.7 |
| 20260510011421 | 53 | 78 | 0.0 | 0.0 | 0.00 | 0.12 | 0.12 | 91 | 1009.1 |
| 20260510011239 | 53 | 103 | 1.7 | 2.6 | 0.00 | 0.15 | 0.15 | 98 | 1007.7 |
| 20260510010920 | 54 | 78 | 0.0 | 0.0 | 0.00 | 0.12 | 0.12 | 91 | 1009.0 |
| 20260510010737 | 53 | 95 | 1.7 | 1.7 | 0.00 | 0.15 | 0.15 | 98 | 1007.6 |
| 20260510010417 | 54 | 78 | 0.0 | 0.0 | 0.00 | 0.12 | 0.12 | 91 | 1008.9 |
| 20260510010233 | 53 | 95 | 1.7 | 1.7 | 0.00 | 0.15 | 0.15 | 98 | 1007.4 |
| 20260510005914 | 54 | 78 | 0.0 | 0.0 | 0.00 | 0.12 | 0.12 | 91 | 1008.8 |
| 20260510005730 | 53 | 90 | 1.7 | 1.7 | 0.00 | 0.15 | 0.15 | 98 | 1007.4 |
| 20260510005413 | 54 | 78 | 0.0 | 0.0 | 0.00 | 0.12 | 0.12 | 91 | 1008.8 |
| 20260510005226 | 54 | 94 | 1.7 | 2.6 | 0.00 | 0.15 | 0.15 | 98 | 1007.2 |
| 20260510004911 | 55 | 78 | 0.0 | 0.0 | 0.00 | 0.12 | 0.12 | 91 | 1008.8 |
| 20260510004724 | 54 | 95 | 1.7 | 2.6 | 0.00 | 0.15 | 0.15 | 98 | 1007.2 |
| 20260510004410 | 55 | 78 | 0.0 | 0.0 | 0.00 | 0.12 | 0.12 | 90 | 1008.8 |
| 20260510004222 | 54 | 90 | 2.6 | 2.6 | 0.00 | 0.15 | 0.15 | 98 | 1007.3 |
| 20260510003855 | 55 | 78 | 0.0 | 0.0 | 0.00 | 0.12 | 0.12 | 90 | 1008.8 |
| 20260510003719 | 54 | 94 | 1.7 | 2.6 | 0.00 | 0.15 | 0.15 | 98 | 1007.4 |
| 20260510003352 | 55 | 78 | 0.0 | 0.0 | 0.00 | 0.12 | 0.12 | 90 | 1008.7 |
| 20260510003215 | 55 | 94 | 2.6 | 2.6 | 0.00 | 0.15 | 0.15 | 97 | 1007.3 |
| 20260510002848 | 56 | 78 | 0.0 | 0.0 | 0.00 | 0.12 | 0.12 | 90 | 1008.7 |
| 20260510002714 | 55 | 94 | 2.6 | 2.6 | 0.00 | 0.15 | 0.15 | 97 | 1007.1 |
| 20260510002346 | 56 | 78 | 0.0 | 0.0 | 0.00 | 0.12 | 0.12 | 90 | 1008.6 |
| 20260510002212 | 55 | 90 | 1.7 | 1.7 | 0.00 | 0.15 | 0.15 | 97 | 1006.8 |
| 20260510001844 | 56 | 78 | 0.0 | 0.0 | 0.00 | 0.12 | 0.12 | 90 | 1008.5 |
| 20260510001708 | 55 | 93 | 2.6 | 2.6 | 0.00 | 0.15 | 0.15 | 97 | 1007.1 |
| 20260510001629 | 56 | 78 | 0.0 | 0.0 | 0.00 | 0.12 | 0.12 | 90 | 1008.6 |
| 20260510001207 | 55 | 90 | 1.7 | 1.7 | 0.00 | 0.15 | 0.15 | 97 | 1007.1 |
| 20260510000840 | 56 | 78 | 0.0 | 0.0 | 0.00 | 0.12 | 0.12 | 90 | 1008.5 |
| 20260510000702 | 56 | 94 | 1.7 | 1.7 | 0.00 | 0.15 | 0.15 | 97 | 1007.2 |
| 20260510000341 | 57 | 78 | 0.0 | 0.0 | 0.00 | 0.12 | 0.12 | 90 | 1008.5 |
| 20260510000200 | 56 | 94 | 2.6 | 2.6 | 0.00 | 0.15 | 0.15 | 96 | 1007.1 |
| 20260509235837 | 57 | 78 | 0.0 | 0.0 | 0.00 | 0.12 | 0.12 | 90 | 1008.5 |
| 20260509235656 | 56 | 78 | 1.7 | 2.6 | 0.00 | 0.15 | 0.15 | 96 | 1007.0 |
| 20260509235337 | 57 | 78 | 0.0 | 0.0 | 0.00 | 0.12 | 0.12 | 89 | 1008.5 |
| 20260509235152 | 57 | 102 | 2.6 | 2.6 | 0.00 | 0.15 | 0.15 | 96 | 1007.0 |
| 20260509234825 | 57 | 78 | 0.0 | 0.0 | 0.00 | 0.12 | 0.12 | 89 | 1008.5 |
| 20260509234649 | 57 | 103 | 1.7 | 2.6 | 0.00 | 0.15 | 0.15 | 96 | 1007.1 |
| 20260509234319 | 58 | 78 | 0.0 | 0.0 | 0.00 | 0.12 | 0.12 | 89 | 1008.4 |
| 20260509234146 | 57 | 98 | 1.7 | 2.6 | 0.00 | 0.15 | 0.15 | 95 | 1007.0 |
| 20260509233819 | 58 | 78 | 0.0 | 0.0 | 0.00 | 0.12 | 0.12 | 88 | 1008.5 |
| 20260509233644 | 57 | 105 | 2.6 | 3.5 | 0.00 | 0.15 | 0.15 | 95 | 1006.9 |
| 20260509233319 | 58 | 78 | 0.0 | 0.0 | 0.00 | 0.12 | 0.12 | 88 | 1008.5 |
| 20260509233141 | 58 | 80 | 1.7 | 2.6 | 0.00 | 0.15 | 0.15 | 95 | 1007.1 |
| 20260509232818 | 58 | 78 | 0.0 | 0.9 | 0.00 | 0.12 | 0.12 | 88 | 1008.6 |
| 20260509232637 | 58 | 96 | 1.7 | 2.6 | 0.00 | 0.15 | 0.15 | 94 | 1007.1 |
| 20260509232316 | 58 | 78 | 0.0 | 0.9 | 0.00 | 0.12 | 0.12 | 88 | 1008.5 |
| 20260509232134 | 58 | 86 | 2.6 | 3.5 | 0.00 | 0.15 | 0.15 | 94 | 1007.0 |
| 20260509231817 | 59 | 74 | 0.0 | 0.0 | 0.00 | 0.12 | 0.12 | 88 | 1008.4 |
| 20260509231631 | 58 | 90 | 2.6 | 3.5 | 0.00 | 0.15 | 0.15 | 94 | 1006.8 |
| 20260509231317 | 59 | 74 | 0.0 | 0.0 | 0.00 | 0.12 | 0.12 | 88 | 1008.5 |
| 20260509231128 | 59 | 101 | 2.6 | 2.6 | 0.00 | 0.15 | 0.15 | 94 | 1006.9 |
| 20260509230814 | 59 | 74 | 0.0 | 0.0 | 0.00 | 0.12 | 0.12 | 88 | 1008.5 |
| 20260509230625 | 59 | 110 | 2.6 | 2.6 | 0.00 | 0.15 | 0.15 | 93 | 1007.0 |
| 20260509230301 | 59 | 74 | 0.0 | 0.0 | 0.00 | 0.12 | 0.12 | 86 | 1008.5 |
| 20260509230122 | 59 | 103 | 1.7 | 2.6 | 0.00 | 0.15 | 0.15 | 93 | 1006.9 |
| 20260509225743 | 59 | 74 | 0.0 | 0.0 | 0.00 | 0.12 | 0.12 | 86 | 1008.5 |
| 20260509225618 | 59 | 90 | 2.6 | 2.6 | 0.00 | 0.15 | 0.15 | 92 | 1007.0 |
| 20260509225233 | 59 | 74 | 0.0 | 0.0 | 0.00 | 0.12 | 0.12 | 85 | 1008.5 |
| 20260509225114 | 59 | 109 | 2.6 | 2.6 | 0.00 | 0.15 | 0.15 | 91 | 1006.9 |
| 20260509224721 | 59 | 74 | 0.0 | 0.0 | 0.00 | 0.12 | 0.12 | 85 | 1008.4 |
| 20260509224609 | 59 | 94 | 1.7 | 2.6 | 0.00 | 0.15 | 0.15 | 90 | 1007.0 |
| 20260509224222 | 59 | 74 | 0.0 | 0.9 | 0.00 | 0.12 | 0.12 | 84 | 1008.5 |
| 20260509224106 | 59 | 102 | 1.7 | 2.6 | 0.00 | 0.15 | 0.15 | 88 | 1007.0 |
| 20260509223722 | 59 | 74 | 0.9 | 2.6 | 0.00 | 0.12 | 0.12 | 82 | 1008.4 |
| 20260509223603 | 60 | 98 | 1.7 | 2.6 | 0.00 | 0.15 | 0.15 | 86 | 1007.0 |
| 20260509223222 | 59 | 70 | 0.0 | 2.6 | 0.00 | 0.12 | 0.12 | 82 | 1008.5 |
| 20260509223101 | 59 | 90 | 2.6 | 2.6 | 0.00 | 0.15 | 0.15 | 87 | 1006.9 |
| 20260509222722 | 59 | 312 | 0.0 | 0.0 | 0.00 | 0.12 | 0.12 | 84 | 1008.4 |
| 20260509222557 | 59 | 98 | 1.7 | 2.6 | 0.00 | 0.15 | 0.15 | 87 | 1006.8 |
| 20260509222231 | 59 | 312 | 0.0 | 0.0 | 0.00 | 0.12 | 0.12 | 83 | 1008.4 |
| 20260509222053 | 59 | 108 | 1.7 | 2.6 | 0.00 | 0.15 | 0.15 | 88 | 1006.9 |
| 20260509221718 | 59 | 311 | 0.0 | 0.0 | 0.00 | 0.12 | 0.12 | 84 | 1008.4 |
| 20260509221548 | 59 | 113 | 1.7 | 1.7 | 0.00 | 0.15 | 0.15 | 87 | 1006.8 |
| 20260509221219 | 59 | 311 | 0.0 | 0.0 | 0.00 | 0.12 | 0.12 | 83 | 1008.5 |
| 20260509221045 | 59 | 124 | 1.7 | 1.7 | 0.00 | 0.15 | 0.15 | 87 | 1007.1 |
| 20260509220709 | 59 | 311 | 0.0 | 0.0 | 0.00 | 0.12 | 0.12 | 85 | 1008.5 |
| 20260509220541 | 59 | 98 | 1.7 | 3.5 | 0.00 | 0.15 | 0.15 | 89 | 1007.1 |
| 20260509220159 | 59 | 311 | 0.0 | 0.0 | 0.00 | 0.12 | 0.12 | 85 | 1008.5 |
| 20260509220037 | 59 | 99 | 1.7 | 1.7 | 0.00 | 0.15 | 0.15 | 88 | 1007.1 |
| 20260509215649 | 59 | 311 | 0.0 | 0.0 | 0.00 | 0.12 | 0.12 | 85 | 1008.5 |
| 20260509215532 | 59 | 98 | 1.7 | 2.6 | 0.00 | 0.15 | 0.15 | 89 | 1006.9 |
| 20260509215423 | 59 | 311 | 0.0 | 0.0 | 0.00 | 0.12 | 0.12 | 84 | 1008.5 |
| 20260509215030 | 59 | 90 | 0.9 | 1.7 | 0.00 | 0.15 | 0.15 | 88 | 1007.1 |
| 20260509214625 | 58 | 311 | 0.0 | 0.0 | 0.00 | 0.12 | 0.12 | 85 | 1008.4 |
| 20260509214527 | 59 | 90 | 0.9 | 0.9 | 0.00 | 0.15 | 0.15 | 88 | 1006.9 |
| 20260509214115 | 58 | 311 | 0.0 | 0.0 | 0.00 | 0.12 | 0.12 | 84 | 1008.4 |
| 20260509214024 | 59 | 90 | 1.7 | 1.7 | 0.00 | 0.15 | 0.15 | 88 | 1007.0 |
| 20260509213601 | 58 | 311 | 0.0 | 0.0 | 0.00 | 0.12 | 0.12 | 85 | 1008.4 |
| 20260509213520 | 59 | 100 | 1.7 | 1.7 | 0.00 | 0.15 | 0.15 | 88 | 1006.9 |
| 20260509213337 | 58 | 311 | 0.0 | 0.0 | 0.00 | 0.12 | 0.12 | 86 | 1008.5 |
| 20260509213017 | 59 | 106 | 0.9 | 1.7 | 0.00 | 0.15 | 0.15 | 86 | 1007.1 |
| 20260509212541 | 58 | 311 | 0.0 | 2.6 | 0.00 | 0.12 | 0.12 | 84 | 1008.4 |
| 20260509212514 | 59 | 102 | 1.7 | 2.6 | 0.00 | 0.15 | 0.15 | 86 | 1006.9 |
| 20260509212041 | 58 | 311 | 0.0 | 2.6 | 0.00 | 0.12 | 0.12 | 86 | 1008.5 |
| 20260509212011 | 59 | 111 | 0.9 | 2.6 | 0.00 | 0.15 | 0.15 | 86 | 1006.8 |
| 20260509211538 | 58 | 355 | 0.0 | 0.0 | 0.00 | 0.12 | 0.12 | 88 | 1008.5 |
| 20260509211506 | 59 | 96 | 2.6 | 2.6 | 0.00 | 0.15 | 0.15 | 91 | 1007.2 |
| 20260509211039 | 57 | 350 | 0.0 | 0.0 | 0.00 | 0.12 | 0.12 | 89 | 1008.6 |
| 20260509211003 | 59 | 90 | 1.7 | 1.7 | 0.00 | 0.15 | 0.15 | 93 | 1007.0 |
| 20260509210537 | 57 | 350 | 0.0 | 0.0 | 0.00 | 0.12 | 0.12 | 88 | 1008.6 |
| 20260509210500 | 58 | 84 | 1.7 | 1.7 | 0.00 | 0.15 | 0.15 | 93 | 1007.2 |
| 20260509210037 | 57 | 350 | 0.0 | 0.0 | 0.00 | 0.12 | 0.12 | 88 | 1008.6 |
| 20260509205956 | 57 | 90 | 1.7 | 2.6 | 0.00 | 0.15 | 0.15 | 93 | 1007.2 |
| 20260509205535 | 57 | 350 | 0.0 | 0.0 | 0.00 | 0.12 | 0.12 | 88 | 1008.7 |
| 20260509205450 | 57 | 101 | 2.6 | 2.6 | 0.00 | 0.15 | 0.15 | 93 | 1007.3 |
| 20260509205032 | 57 | 350 | 0.0 | 0.0 | 0.00 | 0.12 | 0.12 | 89 | 1008.7 |
| 20260509204946 | 57 | 85 | 1.7 | 1.7 | 0.00 | 0.15 | 0.15 | 93 | 1007.1 |
| 20260509204532 | 57 | 350 | 0.0 | 0.0 | 0.00 | 0.12 | 0.12 | 88 | 1008.7 |
| 20260509204443 | 57 | 115 | 1.7 | 2.6 | 0.00 | 0.15 | 0.15 | 93 | 1007.2 |
| 20260509204032 | 57 | 350 | 0.0 | 0.0 | 0.00 | 0.12 | 0.12 | 89 | 1008.7 |
| 20260509203940 | 57 | 107 | 1.7 | 1.7 | 0.00 | 0.15 | 0.15 | 92 | 1007.4 |
| 20260509203532 | 57 | 350 | 0.0 | 0.0 | 0.00 | 0.12 | 0.12 | 89 | 1008.6 |
| 20260509203435 | 57 | 108 | 1.7 | 1.7 | 0.00 | 0.15 | 0.15 | 93 | 1007.2 |
| 20260509203032 | 57 | 350 | 0.0 | 0.0 | 0.00 | 0.12 | 0.12 | 89 | 1008.6 |
| 20260509202933 | 57 | 103 | 1.7 | 2.6 | 0.00 | 0.15 | 0.15 | 93 | 1007.1 |
| 20260509202533 | 57 | 350 | 0.0 | 0.0 | 0.00 | 0.12 | 0.12 | 89 | 1008.7 |
| 20260509202429 | 58 | 90 | 1.7 | 2.6 | 0.00 | 0.15 | 0.15 | 93 | 1007.2 |
| 20260509202033 | 57 | 350 | 0.0 | 0.0 | 0.00 | 0.12 | 0.12 | 90 | 1008.6 |
| 20260509201924 | 58 | 103 | 1.7 | 2.6 | 0.00 | 0.15 | 0.15 | 93 | 1007.2 |
| 20260509201813 | 57 | 350 | 0.0 | 0.0 | 0.00 | 0.12 | 0.12 | 90 | 1008.7 |
| 20260509201420 | 58 | 29 | 0.9 | 3.5 | 0.00 | 0.15 | 0.15 | 95 | 1007.0 |
| 20260509201032 | 57 | 345 | 0.0 | 0.0 | 0.00 | 0.12 | 0.12 | 90 | 1008.6 |
| 20260509200917 | 57 | 97 | 2.6 | 2.6 | 0.00 | 0.15 | 0.15 | 95 | 1007.0 |
| 20260509200545 | 57 | 345 | 0.0 | 0.0 | 0.00 | 0.12 | 0.12 | 91 | 1008.7 |
| 20260509200417 | 57 | 90 | 1.7 | 2.6 | 0.00 | 0.15 | 0.15 | 95 | 1007.2 |
| 20260509200033 | 57 | 345 | 0.0 | 0.0 | 0.00 | 0.12 | 0.12 | 92 | 1008.7 |
| 20260509195914 | 57 | 69 | 0.9 | 1.7 | 0.00 | 0.15 | 0.15 | 96 | 1007.3 |
| 20260509195528 | 57 | 345 | 0.0 | 0.0 | 0.03 | 0.12 | 0.12 | 91 | 1008.8 |
| 20260509195409 | 57 | 106 | 0.9 | 2.6 | 0.00 | 0.15 | 0.15 | 96 | 1007.2 |
| 20260509195027 | 57 | 345 | 0.0 | 0.0 | 0.03 | 0.12 | 0.12 | 92 | 1008.6 |
| 20260509194908 | 57 | 85 | 1.7 | 2.6 | 0.28 | 0.15 | 0.15 | 96 | 1007.0 |
| 20260509194527 | 56 | 345 | 0.0 | 0.0 | 0.04 | 0.12 | 0.12 | 93 | 1008.8 |
| 20260509194405 | 56 | 12 | 2.6 | 2.6 | 0.28 | 0.15 | 0.15 | 96 | 1007.2 |
| 20260509194310 | 56 | 345 | 0.0 | 0.0 | 0.04 | 0.12 | 0.12 | 93 | 1008.6 |
| 20260509193902 | 57 | 85 | 1.7 | 1.7 | 0.00 | 0.10 | 0.10 | 97 | 1007.1 |
| 20260509193526 | 56 | 346 | 0.0 | 0.0 | 0.05 | 0.12 | 0.12 | 92 | 1008.8 |
| 20260509193402 | 56 | 101 | 2.6 | 3.5 | 0.00 | 0.10 | 0.10 | 97 | 1007.3 |
| 20260509193024 | 55 | 346 | 0.0 | 0.0 | 0.05 | 0.12 | 0.12 | 91 | 1008.9 |
| 20260509192858 | 56 | 86 | 1.7 | 2.6 | 0.00 | 0.10 | 0.10 | 97 | 1007.4 |
| 20260509192524 | 55 | 346 | 0.0 | 0.0 | 0.05 | 0.12 | 0.12 | 91 | 1009.0 |
| 20260509192354 | 55 | 90 | 2.6 | 2.6 | 0.00 | 0.10 | 0.10 | 97 | 1007.3 |
| 20260509192025 | 55 | 346 | 0.0 | 0.0 | 0.05 | 0.12 | 0.12 | 91 | 1009.2 |
| 20260509191850 | 55 | 94 | 1.7 | 3.5 | 0.00 | 0.10 | 0.10 | 97 | 1007.8 |
| 20260509191522 | 55 | 344 | 0.0 | 0.0 | 0.05 | 0.12 | 0.12 | 91 | 1009.3 |
| 20260509191346 | 55 | 93 | 2.6 | 3.5 | 0.00 | 0.10 | 0.10 | 96 | 1007.9 |
| 20260509191022 | 55 | 329 | 0.0 | 0.0 | 0.05 | 0.12 | 0.12 | 91 | 1009.4 |
| 20260509190842 | 55 | 97 | 2.6 | 2.6 | 0.00 | 0.10 | 0.10 | 96 | 1008.2 |
| 20260509190515 | 55 | 255 | 0.0 | 0.0 | 0.05 | 0.12 | 0.12 | 90 | 1009.6 |
| 20260509190339 | 54 | 53 | 1.7 | 2.6 | 0.00 | 0.10 | 0.10 | 96 | 1008.0 |
| 20260509190017 | 55 | 255 | 0.0 | 0.0 | 0.04 | 0.11 | 0.12 | 90 | 1009.6 |
| 20260509185836 | 54 | 30 | 1.7 | 2.6 | 0.00 | 0.10 | 0.10 | 95 | 1008.0 |
| 20260509185513 | 55 | 254 | 0.0 | 0.0 | 0.02 | 0.09 | 0.10 | 89 | 1009.7 |
| 20260509185333 | 54 | 45 | 1.7 | 2.6 | 0.00 | 0.10 | 0.10 | 95 | 1008.3 |
| 20260509185014 | 55 | 254 | 0.0 | 0.0 | 0.02 | 0.09 | 0.09 | 89 | 1009.9 |
| 20260509184830 | 55 | 75 | 1.7 | 1.7 | 0.07 | 0.10 | 0.10 | 94 | 1008.3 |
| 20260509184514 | 55 | 254 | 0.0 | 0.0 | 0.01 | 0.08 | 0.08 | 89 | 1009.9 |
| 20260509184327 | 55 | 69 | 0.9 | 1.7 | 0.07 | 0.10 | 0.10 | 94 | 1008.4 |
| 20260509184015 | 55 | 254 | 0.0 | 0.0 | 0.01 | 0.08 | 0.08 | 89 | 1010.0 |
| 20260509183824 | 55 | 90 | 1.7 | 1.7 | 0.00 | 0.09 | 0.09 | 94 | 1008.1 |
| 20260509183519 | 55 | 254 | 0.0 | 0.0 | 0.00 | 0.07 | 0.07 | 88 | 1010.0 |
| 20260509183334 | 55 | 254 | 0.0 | 0.0 | 0.00 | 0.07 | 0.07 | 88 | 1010.1 |
| 20260509183319 | 55 | 94 | 2.6 | 2.6 | 0.00 | 0.09 | 0.09 | 94 | 1008.5 |
| 20260509183045 | 55 | 254 | 0.0 | 0.0 | 0.00 | 0.07 | 0.07 | 88 | 1010.1 |
| 20260509182815 | 55 | 84 | 0.9 | 1.7 | 0.00 | 0.09 | 0.09 | 93 | 1008.4 |
| 20260509182312 | 55 | 63 | 0.9 | 2.6 | 0.00 | 0.09 | 0.09 | 93 | 1008.6 |
| 20260509182235 | 55 | 254 | 0.0 | 0.0 | 0.00 | 0.07 | 0.07 | 88 | 1010.2 |
| 20260509181809 | 55 | 81 | 1.7 | 1.7 | 0.00 | 0.09 | 0.09 | 92 | 1008.7 |
| 20260509181438 | 55 | 254 | 0.0 | 0.0 | 0.00 | 0.07 | 0.07 | 88 | 1010.2 |
| 20260509181307 | 55 | 51 | 1.7 | 2.6 | 0.00 | 0.09 | 0.09 | 93 | 1008.8 |
| 20260509180937 | 55 | 254 | 0.0 | 0.0 | 0.00 | 0.07 | 0.07 | 88 | 1010.3 |
| 20260509180804 | 55 | 63 | 1.7 | 1.7 | 0.00 | 0.09 | 0.09 | 93 | 1008.7 |
| 20260509180721 | 55 | 254 | 0.0 | 0.9 | 0.00 | 0.07 | 0.07 | 87 | 1010.3 |
| 20260509180300 | 55 | 53 | 1.7 | 1.7 | 0.00 | 0.09 | 0.09 | 92 | 1008.8 |
| 20260509175934 | 55 | 254 | 0.0 | 1.7 | 0.00 | 0.07 | 0.07 | 87 | 1010.4 |
| 20260509175756 | 55 | 74 | 0.9 | 2.6 | 0.00 | 0.09 | 0.09 | 92 | 1008.6 |
| 20260509175731 | 55 | 254 | 0.0 | 1.7 | 0.00 | 0.07 | 0.07 | 87 | 1010.4 |
| 20260509175253 | 55 | 48 | 1.7 | 2.6 | 0.00 | 0.09 | 0.09 | 92 | 1008.8 |
| 20260509174932 | 56 | 228 | 0.0 | 0.0 | 0.00 | 0.07 | 0.07 | 87 | 1010.4 |
| 20260509174749 | 55 | 57 | 1.7 | 1.7 | 0.00 | 0.09 | 0.09 | 91 | 1009.0 |
| 20260509174430 | 56 | 228 | 0.0 | 0.0 | 0.00 | 0.07 | 0.07 | 87 | 1010.4 |
| 20260509174244 | 55 | 90 | 0.9 | 1.7 | 0.00 | 0.09 | 0.09 | 91 | 1008.8 |
| 20260509173927 | 56 | 228 | 0.0 | 0.0 | 0.00 | 0.07 | 0.07 | 88 | 1010.4 |
| 20260509173740 | 55 | 65 | 1.7 | 2.6 | 0.00 | 0.09 | 0.09 | 92 | 1008.8 |
| 20260509173428 | 56 | 228 | 0.0 | 0.0 | 0.00 | 0.07 | 0.07 | 88 | 1010.4 |
| 20260509173236 | 55 | 75 | 0.9 | 1.7 | 0.00 | 0.09 | 0.09 | 92 | 1008.9 |
| 20260509172917 | 56 | 228 | 0.0 | 0.0 | 0.00 | 0.07 | 0.07 | 88 | 1010.4 |
| 20260509172733 | 55 | 45 | 1.7 | 2.6 | 0.00 | 0.09 | 0.09 | 92 | 1009.0 |
| 20260509172407 | 56 | 228 | 0.0 | 0.0 | 0.00 | 0.07 | 0.07 | 87 | 1010.4 |
| 20260509172229 | 55 | 63 | 1.7 | 2.6 | 0.00 | 0.09 | 0.09 | 93 | 1008.9 |
| 20260509172144 | 56 | 227 | 0.0 | 0.0 | 0.00 | 0.07 | 0.07 | 87 | 1010.5 |
| 20260509171724 | 55 | 66 | 0.0 | 0.9 | 0.05 | 0.09 | 0.09 | 92 | 1009.0 |
| 20260509171342 | 56 | 227 | 0.0 | 0.0 | 0.00 | 0.07 | 0.07 | 87 | 1010.5 |
| 20260509171221 | 55 | 90 | 1.7 | 1.7 | 0.05 | 0.09 | 0.09 | 92 | 1008.9 |
| 20260509170838 | 56 | 227 | 0.0 | 0.0 | 0.00 | 0.07 | 0.07 | 87 | 1010.5 |
| 20260509170718 | 55 | 52 | 1.7 | 1.7 | 0.00 | 0.08 | 0.08 | 93 | 1009.1 |
| 20260509170336 | 56 | 227 | 0.0 | 0.0 | 0.00 | 0.07 | 0.07 | 88 | 1010.5 |
| 20260509170214 | 56 | 74 | 0.9 | 1.7 | 0.00 | 0.08 | 0.08 | 93 | 1008.9 |
| 20260509165834 | 56 | 227 | 0.0 | 0.0 | 0.00 | 0.07 | 0.07 | 87 | 1010.4 |
| 20260509165713 | 56 | 99 | 0.0 | 1.7 | 0.00 | 0.08 | 0.08 | 92 | 1008.9 |
| 20260509165332 | 56 | 227 | 0.0 | 0.0 | 0.00 | 0.07 | 0.07 | 87 | 1010.3 |
| 20260509165208 | 56 | 60 | 0.0 | 1.7 | 0.00 | 0.08 | 0.08 | 93 | 1008.9 |
| 20260509164833 | 56 | 227 | 0.0 | 0.0 | 0.01 | 0.07 | 0.07 | 88 | 1010.4 |
| 20260509164704 | 56 | 66 | 1.7 | 1.7 | 0.00 | 0.08 | 0.08 | 92 | 1008.6 |